Aviation Digital Data Service (ADDS)

Output produced by METARs form (1522 UTC 20 March 2019)
found at http://www.aviationweather.gov/metar/data/
 
METAR text: ZSFZ 201500Z 22007MPS 6000 NSC 21/19 Q1011 NOSIG
Conditions at: ZSFZ (FUZHOU , CN) observed 1500 UTC 20 March 2019
Temperature: 21.0°C (70°F)
Dewpoint: 19.0°C (66°F) [RH = 88%]
Pressure (altimeter): 29.85 inches Hg (1011.0 mb)
Winds: from the SW (220 degrees) at 16 MPH (14 knots; 7.2 m/s)
Visibility: 4 miles ( 6 km)
Ceiling: at least 12,000 feet AGL
Clouds: sky clear below 12,000 feet AGL
Weather: no significant weather observed at this time

METAR text: ZSFZ 201400Z 21009MPS 8000 NSC 22/19 Q1010 NOSIG
Conditions at: ZSFZ (FUZHOU , CN) observed 1400 UTC 20 March 2019
Temperature: 22.0°C (72°F)
Dewpoint: 19.0°C (66°F) [RH = 83%]
Pressure (altimeter): 29.82 inches Hg (1010.0 mb)
Winds: from the SSW (210 degrees) at 20 MPH (17 knots; 8.7 m/s)
Visibility: 5 miles ( 8 km)
Ceiling: at least 12,000 feet AGL
Clouds: sky clear below 12,000 feet AGL
Weather: no significant weather observed at this time

METAR text: ZSFZ 201300Z 21006MPS CAVOK 22/19 Q1011 NOSIG
Conditions at: ZSFZ (FUZHOU , CN) observed 1300 UTC 20 March 2019
Temperature: 22.0°C (72°F)
Dewpoint: 19.0°C (66°F) [RH = 83%]
Pressure (altimeter): 29.85 inches Hg (1011.0 mb)
Winds: from the SSW (210 degrees) at 14 MPH (12 knots; 6.2 m/s)
Visibility: 6 or more miles (10+ km)
Ceiling: ceiling and visibility are OK
Clouds: unknown
Weather: no significant weather observed at this time

METAR text: ZSFZ 201200Z 22006MPS CAVOK 23/18 Q1010 NOSIG
Conditions at: ZSFZ (FUZHOU , CN) observed 1200 UTC 20 March 2019
Temperature: 23.0°C (73°F)
Dewpoint: 18.0°C (64°F) [RH = 73%]
Pressure (altimeter): 29.82 inches Hg (1010.0 mb)
Winds: from the SW (220 degrees) at 14 MPH (12 knots; 6.2 m/s)
Visibility: 6 or more miles (10+ km)
Ceiling: ceiling and visibility are OK
Clouds: unknown
Weather: no significant weather observed at this time

METAR text: ZSFZ 201100Z 21007MPS 8000 NSC 22/18 Q1009 NOSIG
Conditions at: ZSFZ (FUZHOU , CN) observed 1100 UTC 20 March 2019
Temperature: 22.0°C (72°F)
Dewpoint: 18.0°C (64°F) [RH = 78%]
Pressure (altimeter): 29.79 inches Hg (1009.0 mb)
Winds: from the SSW (210 degrees) at 16 MPH (14 knots; 7.2 m/s)
Visibility: 5 miles ( 8 km)
Ceiling: at least 12,000 feet AGL
Clouds: sky clear below 12,000 feet AGL
Weather: no significant weather observed at this time

METAR text: ZSFZ 201000Z 20009MPS 9000 NSC 23/18 Q1009 NOSIG
Conditions at: ZSFZ (FUZHOU , CN) observed 1000 UTC 20 March 2019
Temperature: 23.0°C (73°F)
Dewpoint: 18.0°C (64°F) [RH = 73%]
Pressure (altimeter): 29.79 inches Hg (1009.0 mb)
Winds: from the SSW (200 degrees) at 20 MPH (17 knots; 8.7 m/s)
Visibility: 6 miles ( 9 km)
Ceiling: at least 12,000 feet AGL
Clouds: sky clear below 12,000 feet AGL
Weather: no significant weather observed at this time

METAR text: ZSFZ 200900Z 20009MPS 7000 NSC 23/17 Q1008 NOSIG
Conditions at: ZSFZ (FUZHOU , CN) observed 0900 UTC 20 March 2019
Temperature: 23.0°C (73°F)
Dewpoint: 17.0°C (63°F) [RH = 69%]
Pressure (altimeter): 29.76 inches Hg (1008.0 mb)
Winds: from the SSW (200 degrees) at 20 MPH (17 knots; 8.7 m/s)
Visibility: 4 miles ( 7 km)
Ceiling: at least 12,000 feet AGL
Clouds: sky clear below 12,000 feet AGL
Weather: no significant weather observed at this time

METAR text: ZSFZ 200800Z 19010MPS 6000 NSC 24/17 Q1008 NOSIG
Conditions at: ZSFZ (FUZHOU , CN) observed 0800 UTC 20 March 2019
Temperature: 24.0°C (75°F)
Dewpoint: 17.0°C (63°F) [RH = 65%]
Pressure (altimeter): 29.76 inches Hg (1008.0 mb)
Winds: from the S (190 degrees) at 22 MPH (19 knots; 9.8 m/s)
Visibility: 4 miles ( 6 km)
Ceiling: at least 12,000 feet AGL
Clouds: sky clear below 12,000 feet AGL
Weather: no significant weather observed at this time

METAR text: ZSFZ 200700Z 19009MPS 8000 NSC 25/17 Q1008 NOSIG
Conditions at: ZSFZ (FUZHOU , CN) observed 0700 UTC 20 March 2019
Temperature: 25.0°C (77°F)
Dewpoint: 17.0°C (63°F) [RH = 61%]
Pressure (altimeter): 29.76 inches Hg (1008.0 mb)
Winds: from the S (190 degrees) at 20 MPH (17 knots; 8.7 m/s)
Visibility: 5 miles ( 8 km)
Ceiling: at least 12,000 feet AGL
Clouds: sky clear below 12,000 feet AGL
Weather: no significant weather observed at this time

METAR text: ZSFZ 200600Z 20009MPS 8000 NSC 24/17 Q1009 NOSIG
Conditions at: ZSFZ (FUZHOU , CN) observed 0600 UTC 20 March 2019
Temperature: 24.0°C (75°F)
Dewpoint: 17.0°C (63°F) [RH = 65%]
Pressure (altimeter): 29.79 inches Hg (1009.0 mb)
Winds: from the SSW (200 degrees) at 20 MPH (17 knots; 8.7 m/s)
Visibility: 5 miles ( 8 km)
Ceiling: at least 12,000 feet AGL
Clouds: sky clear below 12,000 feet AGL
Weather: no significant weather observed at this time

METAR text: ZSFZ 200500Z 18008MPS 8000 SCT033 23/16 Q1010 NOSIG
Conditions at: ZSFZ (FUZHOU , CN) observed 0500 UTC 20 March 2019
Temperature: 23.0°C (73°F)
Dewpoint: 16.0°C (61°F) [RH = 65%]
Pressure (altimeter): 29.82 inches Hg (1010.0 mb)
Winds: from the S (180 degrees) at 18 MPH (16 knots; 8.2 m/s)
Visibility: 5 miles ( 8 km)
Ceiling: at least 12,000 feet AGL
Clouds: scattered clouds at 3300 feet AGL
Weather: no significant weather observed at this time

METAR text: ZSFZ 200400Z 18007MPS 8000 FEW033 22/16 Q1012 NOSIG
Conditions at: ZSFZ (FUZHOU , CN) observed 0400 UTC 20 March 2019
Temperature: 22.0°C (72°F)
Dewpoint: 16.0°C (61°F) [RH = 69%]
Pressure (altimeter): 29.88 inches Hg (1012.0 mb)
Winds: from the S (180 degrees) at 16 MPH (14 knots; 7.2 m/s)
Visibility: 5 miles ( 8 km)
Ceiling: at least 12,000 feet AGL
Clouds: few clouds at 3300 feet AGL
Weather: no significant weather observed at this time

METAR text: ZSFZ 200300Z 17005MPS 120V190 6000 NSC 20/16 Q1013 NOSIG
Conditions at: ZSFZ (FUZHOU , CN) observed 0300 UTC 20 March 2019
Temperature: 20.0°C (68°F)
Dewpoint: 16.0°C (61°F) [RH = 78%]
Pressure (altimeter): 29.91 inches Hg (1013.0 mb)
Winds: from the S (170 degrees) at 12 MPH (10 knots; 5.1 m/s)
Visibility: 4 miles ( 6 km)
Ceiling: at least 12,000 feet AGL
Clouds: sky clear below 12,000 feet AGL
Weather: no significant weather observed at this time

METAR text: ZSFZ 200200Z 16002MPS 7000 NSC 19/15 Q1014 NOSIG
Conditions at: ZSFZ (FUZHOU , CN) observed 0200 UTC 20 March 2019
Temperature: 19.0°C (66°F)
Dewpoint: 15.0°C (59°F) [RH = 78%]
Pressure (altimeter): 29.94 inches Hg (1014.0 mb)
Winds: from the SSE (160 degrees) at 5 MPH (4 knots; 2.1 m/s)
Visibility: 4 miles ( 7 km)
Ceiling: at least 12,000 feet AGL
Clouds: sky clear below 12,000 feet AGL
Weather: no significant weather observed at this time

METAR text: ZSFZ 200100Z 20003MPS 170V230 4500 BR FEW050 19/15 Q1014 NOSIG
Conditions at: ZSFZ (FUZHOU , CN) observed 0100 UTC 20 March 2019
Temperature: 19.0°C (66°F)
Dewpoint: 15.0°C (59°F) [RH = 78%]
Pressure (altimeter): 29.94 inches Hg (1014.0 mb)
Winds: from the SSW (200 degrees) at 7 MPH (6 knots; 3.1 m/s)
Visibility: 2.80 miles (4.51 km)
Ceiling: at least 12,000 feet AGL
Clouds: few clouds at 5000 feet AGL
Weather: BR  (mist)

METAR text: ZSFZ 200000Z VRB01MPS 3500 BR FEW011 BKN050 18/16 Q1014 NOSIG
Conditions at: ZSFZ (FUZHOU , CN) observed 0000 UTC 20 March 2019
Temperature: 18.0°C (64°F)
Dewpoint: 16.0°C (61°F) [RH = 88%]
Pressure (altimeter): 29.94 inches Hg (1014.0 mb)
Winds: variable direction winds at 2 MPH (2 knots; 1.0 m/s)
Visibility: 2.17 miles (3.49 km)
Ceiling: 5000 feet AGL
Clouds: few clouds at 1100 feet AGL
broken clouds at 5000 feet AGL
Weather: BR  (mist)

METAR text: ZSFZ 192300Z 29002MPS 2500 BR BKN010 BKN050 16/15 Q1015 NOSIG
Conditions at: ZSFZ (FUZHOU , CN) observed 2300 UTC 19 March 2019
Temperature: 16.0°C (61°F)
Dewpoint: 15.0°C (59°F) [RH = 94%]
Pressure (altimeter): 29.97 inches Hg (1015.0 mb)
Winds: from the WNW (290 degrees) at 5 MPH (4 knots; 2.1 m/s)
Visibility: 1.55 miles (2.49 km)
Ceiling: 1000 feet AGL
Clouds: broken clouds at 1000 feet AGL
broken clouds at 5000 feet AGL
Weather: BR  (mist)

METAR text: ZSFZ 192200Z 29003MPS 4000 BR OVC010 16/15 Q1015 NOSIG
Conditions at: ZSFZ (FUZHOU , CN) observed 2200 UTC 19 March 2019
Temperature: 16.0°C (61°F)
Dewpoint: 15.0°C (59°F) [RH = 94%]
Pressure (altimeter): 29.97 inches Hg (1015.0 mb)
Winds: from the WNW (290 degrees) at 7 MPH (6 knots; 3.1 m/s)
Visibility: 2.49 miles (4.01 km)
Ceiling: 1000 feet AGL
Clouds: overcast cloud deck at 1000 feet AGL
Weather: BR  (mist)

METAR text: ZSFZ 192100Z 30002MPS 4000 BR OVC013 16/15 Q1014 NOSIG
Conditions at: ZSFZ (FUZHOU , CN) observed 2100 UTC 19 March 2019
Temperature: 16.0°C (61°F)
Dewpoint: 15.0°C (59°F) [RH = 94%]
Pressure (altimeter): 29.94 inches Hg (1014.0 mb)
Winds: from the WNW (300 degrees) at 5 MPH (4 knots; 2.1 m/s)
Visibility: 2.49 miles (4.01 km)
Ceiling: 1300 feet AGL
Clouds: overcast cloud deck at 1300 feet AGL
Weather: BR  (mist)

METAR text: ZSFZ 192000Z 28001MPS 5000 BR OVC015 16/14 Q1014 NOSIG
Conditions at: ZSFZ (FUZHOU , CN) observed 2000 UTC 19 March 2019
Temperature: 16.0°C (61°F)
Dewpoint: 14.0°C (57°F) [RH = 88%]
Pressure (altimeter): 29.94 inches Hg (1014.0 mb)
Winds: from the W (280 degrees) at 2 MPH (2 knots; 1.0 m/s)
Visibility: 3 miles ( 5 km)
Ceiling: 1500 feet AGL
Clouds: overcast cloud deck at 1500 feet AGL
Weather: BR  (mist)

METAR text: ZSFZ 191900Z VRB01MPS 5000 BR OVC015 16/14 Q1014 NOSIG
Conditions at: ZSFZ (FUZHOU , CN) observed 1900 UTC 19 March 2019
Temperature: 16.0°C (61°F)
Dewpoint: 14.0°C (57°F) [RH = 88%]
Pressure (altimeter): 29.94 inches Hg (1014.0 mb)
Winds: variable direction winds at 2 MPH (2 knots; 1.0 m/s)
Visibility: 3 miles ( 5 km)
Ceiling: 1500 feet AGL
Clouds: overcast cloud deck at 1500 feet AGL
Weather: BR  (mist)

METAR text: ZSFZ 191800Z VRB01MPS 6000 OVC015 16/14 Q1015 NOSIG
Conditions at: ZSFZ (FUZHOU , CN) observed 1800 UTC 19 March 2019
Temperature: 16.0°C (61°F)
Dewpoint: 14.0°C (57°F) [RH = 88%]
Pressure (altimeter): 29.97 inches Hg (1015.0 mb)
Winds: variable direction winds at 2 MPH (2 knots; 1.0 m/s)
Visibility: 4 miles ( 6 km)
Ceiling: 1500 feet AGL
Clouds: overcast cloud deck at 1500 feet AGL
Weather: no significant weather observed at this time

METAR text: ZSFZ 191700Z 33002MPS 270V030 5000 BR OVC017 16/14 Q1016 NOSIG
Conditions at: ZSFZ (FUZHOU , CN) observed 1700 UTC 19 March 2019
Temperature: 16.0°C (61°F)
Dewpoint: 14.0°C (57°F) [RH = 88%]
Pressure (altimeter): 30.00 inches Hg (1016.0 mb)
Winds: from the NNW (330 degrees) at 5 MPH (4 knots; 2.1 m/s)
Visibility: 3 miles ( 5 km)
Ceiling: 1700 feet AGL
Clouds: overcast cloud deck at 1700 feet AGL
Weather: BR  (mist)

METAR text: ZSFZ 191600Z VRB01MPS 5000 BR OVC017 15/14 Q1018 NOSIG
Conditions at: ZSFZ (FUZHOU , CN) observed 1600 UTC 19 March 2019
Temperature: 15.0°C (59°F)
Dewpoint: 14.0°C (57°F) [RH = 94%]
Pressure (altimeter): 30.06 inches Hg (1018.0 mb)
Winds: variable direction winds at 2 MPH (2 knots; 1.0 m/s)
Visibility: 3 miles ( 5 km)
Ceiling: 1700 feet AGL
Clouds: overcast cloud deck at 1700 feet AGL
Weather: BR  (mist)

METAR text: ZSFZ 191500Z 01002MPS 310V050 6000 SCT008 OVC021 15/14 Q1018 NOSIG
Conditions at: ZSFZ (FUZHOU , CN) observed 1500 UTC 19 March 2019
Temperature: 15.0°C (59°F)
Dewpoint: 14.0°C (57°F) [RH = 94%]
Pressure (altimeter): 30.06 inches Hg (1018.0 mb)
Winds: from the N (10 degrees) at 5 MPH (4 knots; 2.1 m/s)
Visibility: 4 miles ( 6 km)
Ceiling: 2100 feet AGL
Clouds: scattered clouds at 800 feet AGL
overcast cloud deck at 2100 feet AGL
Weather: no significant weather observed at this time

METAR text: ZSFZ 191400Z 36002MPS 320V030 8000 BKN011 OVC021 15/13 Q1018 BECMG TL1430 SCT011 BKN015
Conditions at: ZSFZ (FUZHOU , CN) observed 1400 UTC 19 March 2019
Temperature: 15.0°C (59°F)
Dewpoint: 13.0°C (55°F) [RH = 88%]
Pressure (altimeter): 30.06 inches Hg (1018.0 mb)
Winds: from the N (360 degrees) at 5 MPH (4 knots; 2.1 m/s)
Visibility: 5 miles ( 8 km)
Ceiling: 1100 feet AGL
Clouds: broken clouds at 1100 feet AGL
overcast cloud deck at 2100 feet AGL
Weather: no significant weather observed at this time

METAR text: ZSFZ 191300Z 02004MPS 8000 BKN009 OVC021 15/13 Q1018 BECMG TL1330 SCT009 BKN015
Conditions at: ZSFZ (FUZHOU , CN) observed 1300 UTC 19 March 2019
Temperature: 15.0°C (59°F)
Dewpoint: 13.0°C (55°F) [RH = 88%]
Pressure (altimeter): 30.06 inches Hg (1018.0 mb)
Winds: from the NNE (20 degrees) at 9 MPH (8 knots; 4.1 m/s)
Visibility: 5 miles ( 8 km)
Ceiling: 900 feet AGL
Clouds: broken clouds at 900 feet AGL
overcast cloud deck at 2100 feet AGL
Weather: no significant weather observed at this time

METAR text: ZSFZ 191200Z 02003MPS 330V040 8000 OVC009 14/12 Q1018 NOSIG
Conditions at: ZSFZ (FUZHOU , CN) observed 1200 UTC 19 March 2019
Temperature: 14.0°C (57°F)
Dewpoint: 12.0°C (54°F) [RH = 88%]
Pressure (altimeter): 30.06 inches Hg (1018.0 mb)
Winds: from the NNE (20 degrees) at 7 MPH (6 knots; 3.1 m/s)
Visibility: 5 miles ( 8 km)
Ceiling: 900 feet AGL
Clouds: overcast cloud deck at 900 feet AGL
Weather: no significant weather observed at this time

METAR text: ZSFZ 191100Z 02004MPS 8000 OVC009 15/12 Q1017 BECMG TL1130 BKN010
Conditions at: ZSFZ (FUZHOU , CN) observed 1100 UTC 19 March 2019
Temperature: 15.0°C (59°F)
Dewpoint: 12.0°C (54°F) [RH = 82%]
Pressure (altimeter): 30.03 inches Hg (1017.0 mb)
Winds: from the NNE (20 degrees) at 9 MPH (8 knots; 4.1 m/s)
Visibility: 5 miles ( 8 km)
Ceiling: 900 feet AGL
Clouds: overcast cloud deck at 900 feet AGL
Weather: no significant weather observed at this time

METAR text: ZSFZ 191000Z 02004MPS 7000 OVC011 15/12 Q1017 NOSIG
Conditions at: ZSFZ (FUZHOU , CN) observed 1000 UTC 19 March 2019
Temperature: 15.0°C (59°F)
Dewpoint: 12.0°C (54°F) [RH = 82%]
Pressure (altimeter): 30.03 inches Hg (1017.0 mb)
Winds: from the NNE (20 degrees) at 9 MPH (8 knots; 4.1 m/s)
Visibility: 4 miles ( 7 km)
Ceiling: 1100 feet AGL
Clouds: overcast cloud deck at 1100 feet AGL
Weather: no significant weather observed at this time

METAR text: ZSFZ 190900Z 03004MPS 7000 OVC011 15/12 Q1016 NOSIG
Conditions at: ZSFZ (FUZHOU , CN) observed 0900 UTC 19 March 2019
Temperature: 15.0°C (59°F)
Dewpoint: 12.0°C (54°F) [RH = 82%]
Pressure (altimeter): 30.00 inches Hg (1016.0 mb)
Winds: from the NNE (30 degrees) at 9 MPH (8 knots; 4.1 m/s)
Visibility: 4 miles ( 7 km)
Ceiling: 1100 feet AGL
Clouds: overcast cloud deck at 1100 feet AGL
Weather: no significant weather observed at this time

METAR text: ZSFZ 190800Z 03005MPS 9999 OVC013 16/12 Q1017 NOSIG
Conditions at: ZSFZ (FUZHOU , CN) observed 0800 UTC 19 March 2019
Temperature: 16.0°C (61°F)
Dewpoint: 12.0°C (54°F) [RH = 77%]
Pressure (altimeter): 30.03 inches Hg (1017.0 mb)
Winds: from the NNE (30 degrees) at 12 MPH (10 knots; 5.1 m/s)
Visibility: 6 or more miles (10+ km)
Ceiling: 1300 feet AGL
Clouds: overcast cloud deck at 1300 feet AGL
Weather: no significant weather observed at this time

METAR text: ZSFZ 190700Z 03004MPS 9999 OVC013 16/12 Q1017 NOSIG
Conditions at: ZSFZ (FUZHOU , CN) observed 0700 UTC 19 March 2019
Temperature: 16.0°C (61°F)
Dewpoint: 12.0°C (54°F) [RH = 77%]
Pressure (altimeter): 30.03 inches Hg (1017.0 mb)
Winds: from the NNE (30 degrees) at 9 MPH (8 knots; 4.1 m/s)
Visibility: 6 or more miles (10+ km)
Ceiling: 1300 feet AGL
Clouds: overcast cloud deck at 1300 feet AGL
Weather: no significant weather observed at this time

METAR text: ZSFZ 190600Z 04005MPS 9999 BKN013 17/12 Q1017 BECMG TL0700 BKN015
Conditions at: ZSFZ (FUZHOU , CN) observed 0600 UTC 19 March 2019
Temperature: 17.0°C (63°F)
Dewpoint: 12.0°C (54°F) [RH = 72%]
Pressure (altimeter): 30.03 inches Hg (1017.0 mb)
Winds: from the NE (40 degrees) at 12 MPH (10 knots; 5.1 m/s)
Visibility: 6 or more miles (10+ km)
Ceiling: 1300 feet AGL
Clouds: broken clouds at 1300 feet AGL
Weather: no significant weather observed at this time

METAR text: ZSFZ 190500Z 05004MPS 9999 BKN013 OVC021 17/13 Q1018 BECMG TL0600 BKN015
Conditions at: ZSFZ (FUZHOU , CN) observed 0500 UTC 19 March 2019
Temperature: 17.0°C (63°F)
Dewpoint: 13.0°C (55°F) [RH = 77%]
Pressure (altimeter): 30.06 inches Hg (1018.0 mb)
Winds: from the NE (50 degrees) at 9 MPH (8 knots; 4.1 m/s)
Visibility: 6 or more miles (10+ km)
Ceiling: 1300 feet AGL
Clouds: broken clouds at 1300 feet AGL
overcast cloud deck at 2100 feet AGL
Weather: no significant weather observed at this time

METAR text: ZSFZ 190400Z 03004MPS 6000 BKN013 OVC017 17/12 Q1019 BECMG TL0500 BKN015
Conditions at: ZSFZ (FUZHOU , CN) observed 0400 UTC 19 March 2019
Temperature: 17.0°C (63°F)
Dewpoint: 12.0°C (54°F) [RH = 72%]
Pressure (altimeter): 30.09 inches Hg (1019.0 mb)
Winds: from the NNE (30 degrees) at 9 MPH (8 knots; 4.1 m/s)
Visibility: 4 miles ( 6 km)
Ceiling: 1300 feet AGL
Clouds: broken clouds at 1300 feet AGL
overcast cloud deck at 1700 feet AGL
Weather: no significant weather observed at this time

Forecast for: ZSFZ (FUZHOU , CN)
Text: TAF ZSFZ 200911Z 2012/2112 20007G12MPS 5000 BR FEW020 TX27/2106Z TN17/2100Z
Forecast period: 1200 UTC 20 March 2019 to 1200 UTC 21 March 2019
Forecast type: FROM: standard forecast or significant change
Winds: from the SSW (200 degrees) at 16 MPH (14 knots; 7.2 m/s)
gusting to 26 MPH (23 knots; 11.8 m/s)
Visibility: 3 miles (5 km)
Ceiling: at least 12,000 feet AGL
Clouds: few clouds at 2000 feet AGL
Weather: BR  (mist)
Text: TEMPO 2018/2024 2000 BR
Forecast period: 1800 UTC 20 March 2019 to 0000 UTC 21 March 2019
Forecast type: TEMPORARY: The following changes expected for less than half the time period
Visibility: 1.24 miles (2.00 km)
Ceiling: unknown
Clouds: missing
Weather: BR  (mist)